Glenvar, Virginia
Current Conditions -  °F | °C
As of 8:54 AM on Saturday 25 Oct 2014 (Local Time) from KROA Reporting Station
Clear Clear  
Wind Chill: 50°   Ceiling: Unl
Heat Index: 50°   Visibility: 10mi
Dew Point: 40°   Wind: 7mph
Humidity: 68%   Direction: 310°NW
Pressure: 30.07"   Gusts: NA
Location:  37.2956°N, 80.1166°W
Report Text: KROA 251254Z 31006KT 10SM CLR 10/04 A3007 RMK AO2 SLP179 T01000044
Loading
Personal Weather Stations






























Interactive Weather Map
Tropical Storm Tracking
New forecast layout! Learn more

10-Day Weather Forecast

Advertisements
Track Severe Weather on mobile